Time;durP1;ratioP1;P1;durP2;ratioP2;P2;SDS_P1;SDS_P2;PMS_P1;PMS_P2;Temp;Humidity;BMP_temperature;BMP_pressure;BME280_temperature;BME280_humidity;BME280_pressure;Samples;Min_cycle;Max_cycle;Signal;HPM_P1;HPM_P2
2023/01/11 00:02:22;;;;;;;2.90;1.20;;;;;;;;;;5113088;28;20261;-81
2023/01/11 00:04:49;;;;;;;3.73;1.47;;;;;;;;;;5113278;28;20194;-81
2023/01/11 00:07:20;;;;;;;5.27;1.93;;;;;;;;;;5112845;28;20658;-81
2023/01/11 00:09:47;;;;;;;6.67;1.80;;;;;;;;;;5112676;28;20209;-81
2023/01/11 00:12:16;;;;;;;7.53;2.80;;;;;;;;;;5112771;28;20194;-81
2023/01/11 00:14:43;;;;;;;5.17;1.60;;;;;;;;;;5112279;28;20222;-80
2023/01/11 00:17:10;;;;;;;3.17;1.07;;;;;;;;;;5113117;28;20236;-81
2023/01/11 00:19:37;;;;;;;3.03;0.93;;;;;;;;;;5112836;28;20285;-81
2023/01/11 00:22:04;;;;;;;3.33;0.80;;;;;;;;;;5112675;28;20623;-81
2023/01/11 00:24:31;;;;;;;2.10;1.00;;;;;;;;;;5112787;28;20320;-80
2023/01/11 00:26:59;;;;;;;3.37;1.20;;;;;;;;;;5112075;28;20241;-81
2023/01/11 00:29:27;;;;;;;5.97;1.80;;;;;;;;;;5112236;28;20665;-81
2023/01/11 00:31:54;;;;;;;5.90;1.97;;;;;;;;;;5112250;28;20285;-82
2023/01/11 00:34:22;;;;;;;5.33;1.73;;;;;;;;;;5112272;28;20705;-80
2023/01/11 00:36:49;;;;;;;6.03;1.70;;;;;;;;;;5112244;28;20202;-81
2023/01/11 00:39:16;;;;;;;3.30;1.30;;;;;;;;;;5112614;28;20198;-81
2023/01/11 00:49:59;;;;;;;4.63;0.60;;;;;;;;;;5112299;28;20272;-81
2023/01/11 00:52:26;;;;;;;4.53;0.60;;;;;;;;;;5111758;28;20221;-80
2023/01/11 00:54:53;;;;;;;2.10;0.70;;;;;;;;;;5112130;28;20221;-81
2023/01/11 00:57:21;;;;;;;1.40;0.50;;;;;;;;;;5111769;28;20217;-81
2023/01/11 00:59:49;;;;;;;2.80;0.60;;;;;;;;;;5111894;28;20221;-81
2023/01/11 01:02:17;;;;;;;2.50;0.83;;;;;;;;;;5112082;28;20190;-81
2023/01/11 01:04:44;;;;;;;3.40;0.60;;;;;;;;;;5111600;28;20229;-81
2023/01/11 01:07:12;;;;;;;2.03;0.70;;;;;;;;;;5112329;28;20190;-80
2023/01/11 01:09:39;;;;;;;1.53;0.57;;;;;;;;;;5112033;28;20198;-81
2023/01/11 01:12:08;;;;;;;4.07;0.70;;;;;;;;;;5111264;28;20226;-80
2023/01/11 01:14:34;;;;;;;4.03;0.60;;;;;;;;;;5111721;28;20194;-81
2023/01/11 01:17:05;;;;;;;2.63;0.73;;;;;;;;;;5112148;28;20202;-81
2023/01/11 01:19:34;;;;;;;2.13;0.60;;;;;;;;;;5111664;28;20225;-81
2023/01/11 01:22:01;;;;;;;3.03;0.60;;;;;;;;;;5111417;28;20217;-81
2023/01/11 01:24:29;;;;;;;2.30;0.63;;;;;;;;;;5111658;28;20229;-81
2023/01/11 01:26:57;;;;;;;4.60;0.83;;;;;;;;;;5111376;28;20224;-81
2023/01/11 01:29:24;;;;;;;4.70;1.30;;;;;;;;;;5111397;28;20708;-81
2023/01/11 01:31:51;;;;;;;5.43;1.57;;;;;;;;;;5111656;28;20650;-80
2023/01/11 01:34:20;;;;;;;3.97;1.00;;;;;;;;;;5111879;28;20238;-81
2023/01/11 01:36:47;;;;;;;4.93;1.17;;;;;;;;;;5112143;28;20666;-81
2023/01/11 01:39:14;;;;;;;3.27;0.97;;;;;;;;;;5111736;28;20194;-81
2023/01/11 01:41:42;;;;;;;4.27;1.10;;;;;;;;;;5110885;28;20225;-81
2023/01/11 01:44:24;;;;;;;5.67;1.20;;;;;;;;;;5111507;28;20305;-82
2023/01/11 01:46:51;;;;;;;4.03;0.90;;;;;;;;;;5110433;28;20189;-81
2023/01/11 01:49:18;;;;;;;4.27;0.90;;;;;;;;;;5111406;28;20653;-81
2023/01/11 01:51:50;;;;;;;6.33;1.10;;;;;;;;;;5111561;28;20658;-81
2023/01/11 01:54:20;;;;;;;5.40;1.50;;;;;;;;;;5111580;28;20963;-81
2023/01/11 01:56:49;;;;;;;6.27;1.20;;;;;;;;;;5114052;28;20244;-81
2023/01/11 01:59:18;;;;;;;4.97;1.00;;;;;;;;;;5115363;28;20686;-81
2023/01/11 02:01:49;;;;;;;2.43;1.00;;;;;;;;;;5115514;28;20619;-81
2023/01/11 02:04:20;;;;;;;7.37;1.50;;;;;;;;;;5115379;28;20712;-82
2023/01/11 02:06:49;;;;;;;5.73;1.13;;;;;;;;;;5115392;28;20226;-81
2023/01/11 02:09:20;;;;;;;7.00;1.00;;;;;;;;;;5115009;28;20240;-81
2023/01/11 02:11:47;;;;;;;4.93;1.33;;;;;;;;;;5115605;28;20222;-81
2023/01/11 02:14:17;;;;;;;3.63;1.30;;;;;;;;;;5115026;28;20275;-81
2023/01/11 02:16:44;;;;;;;4.80;1.03;;;;;;;;;;5115083;28;20225;-81
2023/01/11 02:19:17;;;;;;;4.93;1.10;;;;;;;;;;5115121;28;20225;-81
2023/01/11 02:21:54;;;;;;;4.73;0.93;;;;;;;;;;5115219;28;20281;-81
2023/01/11 02:24:38;;;;;;;5.10;1.03;;;;;;;;;;5114346;28;20260;-81
2023/01/11 02:27:20;;;;;;;6.23;1.13;;;;;;;;;;5115125;28;20190;-81
2023/01/11 02:29:54;;;;;;;3.73;1.10;;;;;;;;;;5111180;28;20221;-81
2023/01/11 02:32:26;;;;;;;7.03;1.33;;;;;;;;;;5115315;28;20284;-81
2023/01/11 02:34:59;;;;;;;5.47;1.00;;;;;;;;;;5114866;28;20746;-82
2023/01/11 02:37:32;;;;;;;6.00;1.20;;;;;;;;;;5114821;28;20217;-81
2023/01/11 02:40:02;;;;;;;4.40;1.23;;;;;;;;;;5113832;28;20232;-81
2023/01/11 02:45:33;;;;;;;10.80;1.63;;;;;;;;;;5114345;28;20232;-80
2023/01/11 02:48:01;;;;;;;10.03;1.33;;;;;;;;;;5114808;28;20233;-81
2023/01/11 02:50:30;;;;;;;7.77;1.80;;;;;;;;;;5114610;28;20670;-81
2023/01/11 02:52:59;;;;;;;11.00;1.60;;;;;;;;;;5113917;28;20197;-81
2023/01/11 02:55:29;;;;;;;12.40;1.37;;;;;;;;;;5114409;28;20202;-80
2023/01/11 02:57:59;;;;;;;10.87;1.50;;;;;;;;;;5114429;28;20225;-81
2023/01/11 03:00:28;;;;;;;13.07;2.10;;;;;;;;;;5114118;28;20629;-81
2023/01/11 03:03:13;;;;;;;9.70;1.73;;;;;;;;;;5114158;28;20225;-81
2023/01/11 03:05:42;;;;;;;10.07;1.60;;;;;;;;;;5114206;28;20622;-81
2023/01/11 03:08:15;;;;;;;9.03;2.00;;;;;;;;;;5094816;28;20225;-80
2023/01/11 03:10:50;;;;;;;11.70;2.10;;;;;;;;;;5113762;28;20669;-81
2023/01/11 03:13:23;;;;;;;12.63;1.50;;;;;;;;;;5114107;28;20228;-81
2023/01/11 03:15:55;;;;;;;13.43;2.03;;;;;;;;;;5114094;28;20197;-81
2023/01/11 03:18:28;;;;;;;12.37;1.83;;;;;;;;;;5114217;28;20221;-80
2023/01/11 03:20:57;;;;;;;11.83;1.73;;;;;;;;;;5110509;28;20206;-80
2023/01/11 03:23:30;;;;;;;11.53;1.80;;;;;;;;;;5102634;28;20241;-81
2023/01/11 03:26:00;;;;;;;10.53;1.77;;;;;;;;;;5093539;28;20197;-81
2023/01/11 03:28:31;;;;;;;11.73;1.97;;;;;;;;;;5108419;28;20236;-81
2023/01/11 03:31:03;;;;;;;10.53;1.60;;;;;;;;;;5113648;28;20221;-81
2023/01/11 03:33:33;;;;;;;15.40;2.30;;;;;;;;;;5113443;28;20233;-81
2023/01/11 03:36:07;;;;;;;13.57;2.17;;;;;;;;;;5113169;28;20586;-80
2023/01/11 03:38:38;;;;;;;12.97;2.47;;;;;;;;;;5113322;28;20630;-81
2023/01/11 03:41:08;;;;;;;11.03;2.33;;;;;;;;;;5113666;28;20240;-81
2023/01/11 03:43:37;;;;;;;13.70;2.10;;;;;;;;;;5113541;28;20665;-81
2023/01/11 03:46:09;;;;;;;17.33;2.83;;;;;;;;;;5113205;28;20197;-81
2023/01/11 03:48:38;;;;;;;14.73;2.50;;;;;;;;;;5113511;28;20253;-81
2023/01/11 03:51:09;;;;;;;18.03;2.30;;;;;;;;;;5113032;28;20225;-81
2023/01/11 03:53:38;;;;;;;12.67;2.17;;;;;;;;;;5113334;28;20234;-81
2023/01/11 03:56:07;;;;;;;13.73;2.30;;;;;;;;;;5113216;28;20236;-80
2023/01/11 03:58:35;;;;;;;17.00;2.70;;;;;;;;;;5113336;28;20237;-81
2023/01/11 04:01:02;;;;;;;23.37;2.53;;;;;;;;;;5112809;28;20277;-81
2023/01/11 04:03:31;;;;;;;14.77;2.27;;;;;;;;;;5113081;28;20225;-81
2023/01/11 04:06:00;;;;;;;14.13;2.37;;;;;;;;;;5112537;28;20261;-81
2023/01/11 04:08:27;;;;;;;17.80;2.30;;;;;;;;;;5112755;28;20217;-81
2023/01/11 04:10:54;;;;;;;17.33;1.97;;;;;;;;;;5113365;28;20194;-82
2023/01/11 04:13:21;;;;;;;15.93;2.50;;;;;;;;;;5112458;28;20236;-82
2023/01/11 04:15:49;;;;;;;13.60;2.53;;;;;;;;;;5112960;28;20194;-82
2023/01/11 04:18:16;;;;;;;18.50;2.40;;;;;;;;;;5112655;28;20198;-81
2023/01/11 04:20:47;;;;;;;12.63;2.17;;;;;;;;;;5112377;28;20240;-81
2023/01/11 04:23:14;;;;;;;10.87;2.03;;;;;;;;;;5112348;28;20631;-80
2023/01/11 04:25:42;;;;;;;15.80;2.30;;;;;;;;;;5112993;28;20236;-81
2023/01/11 04:28:09;;;;;;;15.03;2.13;;;;;;;;;;5112737;28;20252;-80
2023/01/11 04:30:36;;;;;;;14.17;2.17;;;;;;;;;;5112372;28;20229;-81
2023/01/11 04:33:03;;;;;;;13.07;2.30;;;;;;;;;;5112278;28;20232;-81
2023/01/11 04:35:31;;;;;;;9.93;2.10;;;;;;;;;;5111850;28;20202;-82
2023/01/11 04:37:59;;;;;;;13.83;2.50;;;;;;;;;;5112635;28;20198;-81
2023/01/11 04:40:27;;;;;;;19.13;2.23;;;;;;;;;;5112611;28;20190;-81
2023/01/11 04:42:53;;;;;;;12.73;2.07;;;;;;;;;;5112706;28;20236;-81
2023/01/11 04:45:20;;;;;;;14.37;2.10;;;;;;;;;;5112237;28;20251;-81
2023/01/11 04:47:53;;;;;;;13.37;1.70;;;;;;;;;;5112303;28;20642;-81
2023/01/11 04:50:20;;;;;;;11.70;1.80;;;;;;;;;;5111947;28;20198;-81
2023/01/11 04:52:48;;;;;;;11.10;2.43;;;;;;;;;;5112167;28;20709;-80
2023/01/11 04:55:16;;;;;;;14.07;2.40;;;;;;;;;;5112712;28;20624;-81
2023/01/11 04:57:44;;;;;;;18.00;2.40;;;;;;;;;;5112074;28;20236;-81
2023/01/11 05:00:12;;;;;;;14.97;2.33;;;;;;;;;;5111595;28;20197;-81
2023/01/11 05:02:39;;;;;;;14.27;2.23;;;;;;;;;;5112189;28;20205;-81
2023/01/11 05:05:07;;;;;;;15.13;2.70;;;;;;;;;;5111253;28;20257;-81
2023/01/11 05:07:36;;;;;;;11.23;2.20;;;;;;;;;;5111906;28;20225;-82
2023/01/11 05:10:03;;;;;;;14.07;2.60;;;;;;;;;;5112136;28;20205;-81
2023/01/11 05:12:32;;;;;;;12.60;2.07;;;;;;;;;;5111951;28;20270;-82
2023/01/11 05:14:59;;;;;;;12.97;1.70;;;;;;;;;;5112098;28;20237;-82
2023/01/11 05:17:26;;;;;;;12.43;2.13;;;;;;;;;;5111539;28;20712;-82
2023/01/11 05:19:53;;;;;;;12.33;1.77;;;;;;;;;;5111449;28;20240;-82
2023/01/11 05:22:21;;;;;;;15.97;2.40;;;;;;;;;;5111909;28;20213;-81
2023/01/11 05:24:48;;;;;;;15.60;2.07;;;;;;;;;;5111325;28;20263;-81
2023/01/11 05:27:15;;;;;;;17.63;2.33;;;;;;;;;;5111497;28;20237;-81
2023/01/11 05:29:44;;;;;;;16.13;2.67;;;;;;;;;;5111686;28;20233;-81
2023/01/11 05:32:11;;;;;;;16.37;2.47;;;;;;;;;;5111003;28;20194;-81
2023/01/11 05:34:38;;;;;;;17.43;2.70;;;;;;;;;;5111600;28;20193;-81
2023/01/11 05:37:05;;;;;;;19.47;2.30;;;;;;;;;;5108862;28;20698;-81
2023/01/11 05:39:33;;;;;;;15.37;2.20;;;;;;;;;;5101165;28;20233;-82
2023/01/11 05:42:00;;;;;;;15.67;2.83;;;;;;;;;;5111482;28;20225;-82
2023/01/11 05:47:13;;;;;;;13.53;3.23;;;;;;;;;;5090720;28;20611;-82
2023/01/11 05:49:40;;;;;;;16.10;2.77;;;;;;;;;;5091087;28;20289;-82
2023/01/11 05:52:08;;;;;;;13.20;2.80;;;;;;;;;;5091151;28;20229;-82
2023/01/11 05:54:36;;;;;;;12.33;2.50;;;;;;;;;;5100204;28;20221;-81
2023/01/11 05:57:08;;;;;;;15.50;2.30;;;;;;;;;;5111735;28;20198;-82
2023/01/11 05:59:35;;;;;;;12.47;2.30;;;;;;;;;;5111104;28;20558;-82
2023/01/11 06:02:02;;;;;;;16.93;2.60;;;;;;;;;;5110785;28;20221;-81
2023/01/11 06:04:31;;;;;;;16.23;2.30;;;;;;;;;;5110754;28;22105;-79
2023/01/11 06:06:58;;;;;;;18.30;2.57;;;;;;;;;;5111417;28;20224;-78
2023/01/11 06:09:25;;;;;;;17.00;2.33;;;;;;;;;;5111274;28;20228;-79
2023/01/11 06:11:52;;;;;;;16.20;3.03;;;;;;;;;;5111267;28;20194;-79
2023/01/11 06:14:19;;;;;;;15.53;2.60;;;;;;;;;;5111204;28;20229;-79
2023/01/11 06:16:47;;;;;;;16.87;2.60;;;;;;;;;;5110586;28;20228;-79
2023/01/11 06:19:14;;;;;;;15.27;2.17;;;;;;;;;;5111273;28;20197;-76
2023/01/11 06:21:43;;;;;;;17.57;2.67;;;;;;;;;;5111163;28;20236;-77
2023/01/11 06:24:10;;;;;;;23.07;3.30;;;;;;;;;;5111520;28;20270;-77
2023/01/11 06:26:37;;;;;;;15.53;3.63;;;;;;;;;;5110962;28;20265;-76
2023/01/11 06:29:04;;;;;;;12.60;3.00;;;;;;;;;;5110798;28;20304;-77
2023/01/11 06:31:31;;;;;;;19.27;3.20;;;;;;;;;;5110563;28;20680;-78
2023/01/11 06:33:59;;;;;;;16.77;2.80;;;;;;;;;;5110908;28;20245;-77
2023/01/11 06:36:26;;;;;;;17.47;2.93;;;;;;;;;;5111032;28;20227;-78
2023/01/11 06:38:54;;;;;;;20.47;3.23;;;;;;;;;;5110746;28;20270;-78
2023/01/11 06:41:22;;;;;;;15.20;2.80;;;;;;;;;;5107894;28;20691;-77
2023/01/11 06:43:49;;;;;;;19.33;3.17;;;;;;;;;;5106482;28;20197;-78
2023/01/11 06:46:17;;;;;;;17.47;3.07;;;;;;;;;;5113796;28;20320;-82
2023/01/11 06:48:45;;;;;;;14.87;2.90;;;;;;;;;;5114724;28;20245;-82
2023/01/11 06:51:12;;;;;;;18.33;3.90;;;;;;;;;;5112232;28;20634;-83
2023/01/11 06:53:40;;;;;;;22.40;4.23;;;;;;;;;;5112771;28;20670;-80
2023/01/11 06:56:11;;;;;;;19.37;3.17;;;;;;;;;;5101283;28;20205;-82
2023/01/11 06:58:39;;;;;;;18.60;3.63;;;;;;;;;;5106299;28;20274;-81
2023/01/11 07:01:06;;;;;;;18.60;2.90;;;;;;;;;;5111906;28;20270;-87
2023/01/11 07:03:34;;;;;;;16.37;2.67;;;;;;;;;;5113283;28;20648;-85
2023/01/11 07:06:03;;;;;;;23.27;3.10;;;;;;;;;;5109301;28;20231;-86
2023/01/11 07:08:30;;;;;;;15.73;2.73;;;;;;;;;;5112713;28;20281;-85
2023/01/11 07:10:57;;;;;;;17.60;2.70;;;;;;;;;;5113410;28;20224;-84
2023/01/11 07:13:26;;;;;;;22.23;3.20;;;;;;;;;;5111570;28;20670;-87
2023/01/11 07:15:57;;;;;;;23.57;3.67;;;;;;;;;;5109516;28;20209;-85
2023/01/11 07:18:24;;;;;;;22.10;5.43;;;;;;;;;;5114005;28;20197;-85
2023/01/11 07:20:51;;;;;;;20.77;6.97;;;;;;;;;;5109583;28;20233;-84
2023/01/11 07:23:19;;;;;;;26.90;8.63;;;;;;;;;;5113317;28;20844;-84
2023/01/11 07:25:46;;;;;;;21.97;9.80;;;;;;;;;;5111758;28;20233;-85
2023/01/11 07:28:13;;;;;;;21.10;9.80;;;;;;;;;;5112724;28;20685;-85
2023/01/11 07:30:42;;;;;;;21.43;9.63;;;;;;;;;;5113219;28;20273;-83
2023/01/11 07:33:10;;;;;;;24.80;8.93;;;;;;;;;;5114014;28;20237;-84
2023/01/11 07:35:38;;;;;;;26.53;8.63;;;;;;;;;;5113380;28;20198;-86
2023/01/11 07:38:08;;;;;;;27.60;8.43;;;;;;;;;;5111465;28;20255;-84
2023/01/11 07:40:36;;;;;;;21.37;8.07;;;;;;;;;;5111044;28;20276;-83
2023/01/11 07:43:13;;;;;;;18.43;6.67;;;;;;;;;;5113160;28;20730;-85
2023/01/11 07:45:43;;;;;;;17.73;4.50;;;;;;;;;;5109065;28;20275;-85
2023/01/11 07:48:11;;;;;;;24.57;4.80;;;;;;;;;;5111635;28;20237;-86
2023/01/11 07:50:39;;;;;;;21.47;5.37;;;;;;;;;;5105459;28;20206;-86
2023/01/11 07:53:07;;;;;;;15.13;5.47;;;;;;;;;;5114363;28;20208;-86
2023/01/11 07:55:34;;;;;;;22.53;5.80;;;;;;;;;;5113163;28;20198;-86
2023/01/11 07:58:02;;;;;;;20.90;4.53;;;;;;;;;;5113508;28;20261;-85
2023/01/11 08:00:29;;;;;;;16.70;4.47;;;;;;;;;;5113128;28;20818;-85
2023/01/11 08:02:57;;;;;;;27.67;5.03;;;;;;;;;;5114348;28;20722;-86
2023/01/11 08:05:25;;;;;;;19.83;4.60;;;;;;;;;;5114199;28;20255;-86
2023/01/11 08:07:52;;;;;;;19.63;5.00;;;;;;;;;;5108234;28;20627;-85
2023/01/11 08:10:19;;;;;;;20.53;4.70;;;;;;;;;;5112655;28;20221;-86
2023/01/11 08:15:32;;;;;;;21.83;4.83;;;;;;;;;;5113011;28;20207;-87
2023/01/11 08:18:01;;;;;;;21.93;4.70;;;;;;;;;;5109070;28;20205;-86
2023/01/11 08:20:28;;;;;;;24.70;5.30;;;;;;;;;;5112911;28;20241;-86
2023/01/11 08:22:56;;;;;;;28.60;5.37;;;;;;;;;;5113513;28;20630;-88
2023/01/11 08:25:24;;;;;;;30.20;4.90;;;;;;;;;;5091112;28;20241;-87
2023/01/11 08:27:52;;;;;;;36.60;4.33;;;;;;;;;;5109574;28;20211;-87
2023/01/11 08:30:19;;;;;;;19.87;4.70;;;;;;;;;;5112296;28;20249;-87
2023/01/11 08:32:47;;;;;;;21.50;4.77;;;;;;;;;;5113478;28;20197;-87
2023/01/11 08:35:15;;;;;;;20.50;5.17;;;;;;;;;;5112915;28;20230;-87
2023/01/11 08:37:43;;;;;;;22.97;4.20;;;;;;;;;;5112835;28;20193;-87
2023/01/11 08:40:10;;;;;;;25.93;4.20;;;;;;;;;;5112769;28;20237;-88
2023/01/11 08:42:38;;;;;;;23.17;4.53;;;;;;;;;;5113061;28;20297;-86
2023/01/11 08:45:05;;;;;;;21.37;4.47;;;;;;;;;;5112443;28;20276;-87
2023/01/11 08:47:32;;;;;;;22.03;4.47;;;;;;;;;;5112918;28;20662;-86
2023/01/11 08:50:00;;;;;;;16.87;3.40;;;;;;;;;;5113126;28;20233;-87
2023/01/11 08:52:29;;;;;;;21.63;3.70;;;;;;;;;;5113932;28;20209;-87
2023/01/11 08:54:56;;;;;;;26.70;4.80;;;;;;;;;;5111938;28;20220;-93
2023/01/11 08:57:23;;;;;;;22.83;3.93;;;;;;;;;;5113584;28;20245;-87
2023/01/11 08:59:51;;;;;;;22.27;3.93;;;;;;;;;;5111329;28;20602;-92
2023/01/11 09:02:18;;;;;;;20.63;3.77;;;;;;;;;;5094075;28;20198;-92
2023/01/11 09:04:45;;;;;;;15.03;3.63;;;;;;;;;;5095492;28;20893;-91
2023/01/11 09:07:13;;;;;;;19.60;5.30;;;;;;;;;;5114010;28;20713;-88
2023/01/11 09:09:42;;;;;;;17.87;7.03;;;;;;;;;;5111764;28;20233;-86
2023/01/11 09:12:09;;;;;;;16.90;4.60;;;;;;;;;;5112710;28;20194;-90
2023/01/11 09:14:36;;;;;;;14.73;3.95;;;;;;;;;;5113376;28;20190;-87
2023/01/11 09:17:04;;;;;;;12.38;4.00;;;;;;;;;;5093754;28;20205;-89
2023/01/11 09:19:32;;;;;;;18.02;4.38;;;;;;;;;;5110939;28;20208;-89
2023/01/11 09:22:01;;;;;;;12.15;3.30;;;;;;;;;;5111298;28;20270;-88
2023/01/11 09:24:29;;;;;;;16.73;3.97;;;;;;;;;;5108929;28;20200;-87
2023/01/11 09:26:59;;;;;;;14.40;3.88;;;;;;;;;;5111203;28;20308;-85
2023/01/11 09:29:26;;;;;;;12.38;3.17;;;;;;;;;;5112326;28;20700;-88
2023/01/11 09:31:54;;;;;;;18.08;3.55;;;;;;;;;;5113152;28;20644;-87
2023/01/11 09:34:23;;;;;;;11.90;3.42;;;;;;;;;;5112341;28;20201;-86
2023/01/11 09:36:51;;;;;;;15.80;3.60;;;;;;;;;;5110167;28;20203;-89
2023/01/11 09:39:22;;;;;;;13.77;3.47;;;;;;;;;;5108152;28;20691;-89
2023/01/11 09:42:09;;;;;;;12.02;3.25;;;;;;;;;;5111948;28;20205;-86
2023/01/11 09:44:43;;;;;;;15.80;3.47;;;;;;;;;;5112639;28;20229;-87
2023/01/11 09:47:13;;;;;;;13.68;3.42;;;;;;;;;;5110488;28;20737;-86
2023/01/11 09:49:43;;;;;;;11.80;2.90;;;;;;;;;;5111839;28;20292;-86
2023/01/11 09:52:16;;;;;;;15.30;3.40;;;;;;;;;;5111652;28;20202;-85
2023/01/11 09:54:46;;;;;;;13.25;3.25;;;;;;;;;;5110421;28;20197;-85
2023/01/11 09:57:17;;;;;;;11.68;3.15;;;;;;;;;;5110669;28;20209;-82
2023/01/11 09:59:51;;;;;;;14.57;3.25;;;;;;;;;;5110625;28;20292;-84
2023/01/11 10:02:23;;;;;;;13.52;3.42;;;;;;;;;;5111339;28;20205;-86
2023/01/11 10:05:00;;;;;;;11.57;3.47;;;;;;;;;;5110921;28;20270;-82
2023/01/11 10:07:32;;;;;;;17.63;3.88;;;;;;;;;;5110382;28;20713;-86
2023/01/11 10:10:06;;;;;;;12.27;3.25;;;;;;;;;;5111460;28;20685;-85
2023/01/11 10:12:40;;;;;;;14.23;2.85;;;;;;;;;;5110573;28;20602;-84
2023/01/11 10:15:14;;;;;;;12.40;3.00;;;;;;;;;;5109899;28;20190;-82
2023/01/11 10:17:44;;;;;;;15.30;3.13;;;;;;;;;;5112265;28;20205;-84
2023/01/11 10:20:19;;;;;;;15.45;2.97;;;;;;;;;;5114726;28;20717;-84
2023/01/11 10:22:47;;;;;;;16.58;4.00;;;;;;;;;;5113152;28;20688;-83
2023/01/11 10:25:20;;;;;;;15.90;3.10;;;;;;;;;;5113742;28;20233;-81
2023/01/11 10:27:52;;;;;;;15.35;3.28;;;;;;;;;;5110074;28;20224;-80
2023/01/11 10:30:40;;;;;;;11.70;3.00;;;;;;;;;;5113659;28;20281;-82
2023/01/11 10:33:17;;;;;;;18.80;3.30;;;;;;;;;;5111243;28;20208;-83
2023/01/11 10:35:57;;;;;;;14.30;3.65;;;;;;;;;;5112042;28;20201;-84
2023/01/11 10:38:41;;;;;;;17.77;3.15;;;;;;;;;;5112628;28;20193;-85
2023/01/11 10:41:18;;;;;;;13.13;3.13;;;;;;;;;;5108333;28;20684;-81
2023/01/11 10:43:48;;;;;;;15.55;3.38;;;;;;;;;;5112885;28;20212;-80
2023/01/11 10:46:18;;;;;;;15.32;3.30;;;;;;;;;;5112608;28;20225;-81
2023/01/11 10:48:46;;;;;;;16.80;3.38;;;;;;;;;;5112846;28;21106;-83
2023/01/11 10:51:18;;;;;;;12.93;3.10;;;;;;;;;;5113172;28;20672;-81
2023/01/11 10:53:53;;;;;;;19.15;3.58;;;;;;;;;;5111907;28;20258;-82
2023/01/11 10:56:23;;;;;;;15.60;3.17;;;;;;;;;;5110035;28;20201;-83
2023/01/11 10:59:02;;;;;;;14.63;3.03;;;;;;;;;;5110289;28;20237;-82
2023/01/11 11:01:39;;;;;;;16.48;4.40;;;;;;;;;;5109629;28;20930;-82
2023/01/11 11:04:16;;;;;;;15.93;3.55;;;;;;;;;;5113009;28;20719;-82
2023/01/11 11:06:46;;;;;;;14.43;3.05;;;;;;;;;;5112120;28;20253;-82
2023/01/11 11:09:19;;;;;;;13.80;3.72;;;;;;;;;;5109017;28;20198;-82
2023/01/11 11:11:52;;;;;;;16.05;2.65;;;;;;;;;;5112774;28;20293;-82
2023/01/11 11:14:22;;;;;;;13.82;3.50;;;;;;;;;;5112755;28;20709;-81
2023/01/11 11:16:55;;;;;;;13.52;2.90;;;;;;;;;;5109909;28;20276;-81
2023/01/11 11:19:25;;;;;;;16.02;3.63;;;;;;;;;;5109380;28;20225;-81
2023/01/11 11:21:52;;;;;;;13.68;2.72;;;;;;;;;;5112606;28;20198;-81
2023/01/11 11:24:22;;;;;;;13.65;2.80;;;;;;;;;;5110021;28;20393;-81
2023/01/11 11:26:58;;;;;;;17.13;3.03;;;;;;;;;;5111030;28;20785;-81
2023/01/11 11:29:29;;;;;;;14.90;2.60;;;;;;;;;;5111781;28;20201;-82
2023/01/11 11:31:58;;;;;;;14.10;3.40;;;;;;;;;;5104914;28;20201;-84
2023/01/11 11:34:26;;;;;;;15.38;3.47;;;;;;;;;;5105585;28;20222;-84
2023/01/11 11:36:54;;;;;;;15.45;3.42;;;;;;;;;;5102581;27;20197;-82
2023/01/11 11:39:23;;;;;;;16.15;3.00;;;;;;;;;;5112025;28;20209;-85
2023/01/11 11:41:51;;;;;;;13.07;2.70;;;;;;;;;;5112025;28;20197;-84
2023/01/11 11:44:19;;;;;;;15.52;3.78;;;;;;;;;;5114765;28;20232;-84
2023/01/11 11:47:04;;;;;;;15.88;3.15;;;;;;;;;;5113642;28;20238;-84
2023/01/11 11:49:33;;;;;;;14.68;3.15;;;;;;;;;;5111563;28;20232;-83
2023/01/11 11:52:01;;;;;;;20.55;3.05;;;;;;;;;;5112085;28;20202;-84
2023/01/11 11:54:30;;;;;;;16.42;3.58;;;;;;;;;;5111812;28;20624;-83
2023/01/11 11:56:59;;;;;;;13.95;2.88;;;;;;;;;;5112456;28;20612;-83
2023/01/11 11:59:29;;;;;;;12.93;3.00;;;;;;;;;;5111168;28;20262;-83
2023/01/11 12:01:58;;;;;;;13.30;3.30;;;;;;;;;;5111542;28;20731;-85
2023/01/11 12:04:31;;;;;;;18.50;3.40;;;;;;;;;;5109241;28;20674;-84
2023/01/11 12:07:07;;;;;;;12.13;2.70;;;;;;;;;;5108464;28;20320;-85
2023/01/11 12:09:35;;;;;;;15.63;3.00;;;;;;;;;;5110827;28;20609;-82
2023/01/11 12:12:03;;;;;;;16.27;3.00;;;;;;;;;;5111036;28;20251;-82
2023/01/11 12:14:31;;;;;;;19.27;3.40;;;;;;;;;;5111181;28;20565;-83
2023/01/11 12:16:59;;;;;;;17.77;3.10;;;;;;;;;;5109947;28;20290;-82
2023/01/11 12:19:28;;;;;;;15.23;2.67;;;;;;;;;;5110610;28;20247;-84
2023/01/11 12:22:09;;;;;;;19.63;2.72;;;;;;;;;;5111537;28;20236;-84
2023/01/11 12:24:38;;;;;;;11.77;2.70;;;;;;;;;;5111147;28;20233;-84
2023/01/11 12:27:09;;;;;;;11.55;2.72;;;;;;;;;;5110710;28;20968;-84
2023/01/11 12:29:50;;;;;;;15.23;3.22;;;;;;;;;;5111264;28;20236;-84
2023/01/11 12:32:26;;;;;;;12.38;2.70;;;;;;;;;;5111177;28;20201;-84
2023/01/11 12:35:09;;;;;;;14.10;2.95;;;;;;;;;;5104156;28;20229;-83
2023/01/11 12:37:45;;;;;;;13.45;2.95;;;;;;;;;;5109372;28;20247;-85
2023/01/11 12:40:19;;;;;;;12.32;2.45;;;;;;;;;;5107589;28;20224;-82
2023/01/11 12:42:55;;;;;;;14.85;2.58;;;;;;;;;;5110188;28;20252;-83
2023/01/11 12:45:27;;;;;;;13.13;2.63;;;;;;;;;;5109982;28;20250;-83
2023/01/11 12:48:09;;;;;;;11.95;2.58;;;;;;;;;;5094081;28;20316;-81
2023/01/11 12:50:40;;;;;;;16.63;3.15;;;;;;;;;;5101335;28;20206;-83
2023/01/11 12:53:13;;;;;;;16.13;2.97;;;;;;;;;;5109159;28;20243;-83
2023/01/11 12:55:47;;;;;;;11.75;2.58;;;;;;;;;;5108965;28;20220;-83
2023/01/11 12:58:16;;;;;;;16.27;2.63;;;;;;;;;;5101289;28;20233;-82
2023/01/11 13:00:53;;;;;;;14.00;3.50;;;;;;;;;;5108783;28;20252;-82
2023/01/11 13:03:33;;;;;;;12.35;3.17;;;;;;;;;;5103740;28;20229;-82
2023/01/11 13:06:04;;;;;;;11.82;3.03;;;;;;;;;;5110659;28;20255;-82
2023/01/11 13:08:36;;;;;;;13.90;3.45;;;;;;;;;;5108231;28;20307;-82
2023/01/11 13:11:11;;;;;;;14.77;3.17;;;;;;;;;;5108763;28;20221;-82
2023/01/11 13:13:48;;;;;;;11.43;2.40;;;;;;;;;;5110667;28;20228;-82
2023/01/11 13:16:17;;;;;;;14.82;2.60;;;;;;;;;;5108372;28;20713;-82
2023/01/11 13:18:46;;;;;;;10.75;2.75;;;;;;;;;;5107912;28;20703;-82
2023/01/11 13:21:18;;;;;;;12.55;2.83;;;;;;;;;;5109128;28;20217;-82
2023/01/11 13:23:47;;;;;;;13.57;2.70;;;;;;;;;;5110877;28;20650;-82
2023/01/11 13:26:22;;;;;;;10.00;1.90;;;;;;;;;;5111448;28;20189;-82
2023/01/11 13:28:51;;;;;;;9.73;2.10;;;;;;;;;;5108178;28;20262;-81
2023/01/11 13:31:18;;;;;;;8.17;2.03;;;;;;;;;;5110614;28;20627;-83
2023/01/11 13:33:47;;;;;;;10.07;2.00;;;;;;;;;;5102446;28;20201;-81
2023/01/11 13:36:16;;;;;;;9.43;1.83;;;;;;;;;;5101291;28;20197;-81
2023/01/11 13:38:45;;;;;;;9.80;2.33;;;;;;;;;;5108698;28;20266;-81
2023/01/11 13:41:15;;;;;;;10.13;2.83;;;;;;;;;;5111154;28;20547;-82
2023/01/11 13:43:46;;;;;;;9.63;2.17;;;;;;;;;;5107374;28;20744;-84
2023/01/11 13:46:16;;;;;;;12.60;2.37;;;;;;;;;;5105682;28;20199;-84
2023/01/11 13:48:45;;;;;;;12.40;2.80;;;;;;;;;;5110638;28;20313;-86
2023/01/11 13:51:16;;;;;;;8.93;2.00;;;;;;;;;;5111014;28;20214;-85
2023/01/11 13:53:47;;;;;;;9.83;2.03;;;;;;;;;;5113187;27;20250;-85
2023/01/11 13:56:19;;;;;;;11.13;1.90;;;;;;;;;;5114054;28;20251;-84
2023/01/11 13:58:52;;;;;;;7.40;1.80;;;;;;;;;;5113875;28;20588;-84
2023/01/11 14:01:21;;;;;;;12.27;2.37;;;;;;;;;;5113460;28;20673;-84
2023/01/11 14:03:50;;;;;;;11.73;2.07;;;;;;;;;;5111354;28;20201;-84
2023/01/11 14:06:27;;;;;;;10.53;1.93;;;;;;;;;;5115449;28;20671;-84
2023/01/11 14:09:04;;;;;;;6.10;1.80;;;;;;;;;;5110104;28;20213;-84
2023/01/11 14:11:36;;;;;;;10.20;2.07;;;;;;;;;;5112568;28;20229;-84
2023/01/11 14:14:18;;;;;;;11.70;1.97;;;;;;;;;;5114298;28;20789;-83
2023/01/11 14:16:54;;;;;;;7.87;1.83;;;;;;;;;;5111036;28;20193;-83
2023/01/11 14:19:24;;;;;;;9.40;1.77;;;;;;;;;;5114421;28;20265;-83
2023/01/11 14:21:58;;;;;;;8.70;2.10;;;;;;;;;;5114183;28;20194;-84
2023/01/11 14:24:26;;;;;;;12.53;2.83;;;;;;;;;;5114459;28;20259;-85
2023/01/11 14:27:05;;;;;;;9.27;1.80;;;;;;;;;;5114272;28;20548;-84
2023/01/11 14:29:58;;;;;;;11.47;2.23;;;;;;;;;;5111776;28;20241;-84
2023/01/11 14:32:40;;;;;;;6.60;1.80;;;;;;;;;;5089333;28;20202;-84
2023/01/11 14:35:25;;;;;;;7.67;1.57;;;;;;;;;;5109664;28;20250;-82
2023/01/11 14:38:15;;;;;;;9.83;1.70;;;;;;;;;;5102360;28;20221;-83
2023/01/11 14:40:52;;;;;;;8.43;1.73;;;;;;;;;;5109317;27;20653;-84
2023/01/11 14:43:37;;;;;;;10.67;1.47;;;;;;;;;;5112318;28;20760;-85
2023/01/11 14:46:15;;;;;;;9.07;1.83;;;;;;;;;;5113041;28;20190;-84
2023/01/11 14:48:48;;;;;;;7.83;2.03;;;;;;;;;;5115028;28;20268;-86
2023/01/11 14:51:28;;;;;;;5.27;1.53;;;;;;;;;;5112781;28;20293;-82
2023/01/11 14:54:02;;;;;;;10.97;2.10;;;;;;;;;;5103624;28;20294;-82
2023/01/11 14:56:47;;;;;;;10.07;1.87;;;;;;;;;;5112997;28;20190;-82
2023/01/11 14:59:23;;;;;;;7.27;1.87;;;;;;;;;;5113125;28;20200;-81
2023/01/11 15:02:14;;;;;;;9.40;2.30;;;;;;;;;;5113483;28;20217;-80
2023/01/11 15:04:56;;;;;;;10.03;2.00;;;;;;;;;;5089358;28;20198;-82
2023/01/11 15:07:25;;;;;;;9.17;2.10;;;;;;;;;;5107586;28;20716;-83
2023/01/11 15:09:54;;;;;;;11.17;2.13;;;;;;;;;;5108065;28;20193;-83